Oak Glen, California
Current Conditions -  °F | °C
As of 11:58 PM on Tuesday 25 Nov 2014 (Local Time) from KRIV Reporting Station
Clear Clear  
Wind Chill: 43°   Ceiling: Unl
Heat Index: 43°   Visibility: 10mi
Dew Point: 12°   Wind: 0mph
Humidity: 28%   Direction: NA
Pressure: 30.3"   Gusts: NA
Location:  34.036°N, 117.017°W
Report Text: KRIV 260758Z AUTO 00000KT 10SM CLR 06/M11 A3030 RMK AO2 SLP257 T00631113 402400039
Loading
Personal Weather Stations






























Interactive Weather Map New forecast layout! Learn more

10-Day Weather Forecast

Advertisements
Track Severe Weather on mobile